Time;durP1;ratioP1;P1;durP2;ratioP2;P2;SDS_P1;SDS_P2;PMS_P1;PMS_P2;Temp;Humidity;BMP_temperature;BMP_pressure;BME280_temperature;BME280_humidity;BME280_pressure;Samples;Min_cycle;Max_cycle;Signal;HPM_P1;HPM_P2
2022/07/08 00:01:39;;;;;;;5.80;3.10;;;;;;;;;;5072165;28;20017;-58
2022/07/08 00:04:05;;;;;;;6.28;3.20;;;;;;;;;;5072537;28;20028;-58
2022/07/08 00:06:31;;;;;;;7.18;3.10;;;;;;;;;;5072051;28;20401;-55
2022/07/08 00:08:57;;;;;;;6.10;3.20;;;;;;;;;;5072151;28;20068;-57
2022/07/08 00:11:24;;;;;;;4.90;3.10;;;;;;;;;;5072036;28;20086;-58
2022/07/08 00:13:50;;;;;;;6.38;3.30;;;;;;;;;;5072279;28;20074;-58
2022/07/08 00:16:16;;;;;;;5.30;3.75;;;;;;;;;;5072335;28;20115;-58
2022/07/08 00:18:42;;;;;;;5.50;3.10;;;;;;;;;;5072314;28;20025;-57
2022/07/08 00:21:08;;;;;;;7.07;3.22;;;;;;;;;;5071785;28;20028;-58
2022/07/08 00:23:34;;;;;;;5.70;3.13;;;;;;;;;;5072005;28;20031;-58
2022/07/08 00:26:00;;;;;;;5.13;2.70;;;;;;;;;;5072133;28;20040;-58
2022/07/08 00:28:26;;;;;;;4.97;3.10;;;;;;;;;;5072079;28;20439;-58
2022/07/08 00:30:52;;;;;;;5.32;3.08;;;;;;;;;;5072185;28;20111;-57
2022/07/08 00:33:18;;;;;;;4.25;2.90;;;;;;;;;;5071909;28;20033;-57
2022/07/08 00:35:44;;;;;;;6.22;3.20;;;;;;;;;;5071742;28;20040;-58
2022/07/08 00:38:10;;;;;;;4.38;2.90;;;;;;;;;;5071994;28;20082;-56
2022/07/08 00:40:37;;;;;;;6.45;3.30;;;;;;;;;;5071880;28;20033;-58
2022/07/08 00:43:04;;;;;;;7.30;3.22;;;;;;;;;;5071893;28;20056;-54
2022/07/08 00:45:31;;;;;;;6.30;3.30;;;;;;;;;;5071717;28;20466;-58
2022/07/08 00:47:57;;;;;;;5.40;3.22;;;;;;;;;;5071695;28;20401;-58
2022/07/08 00:50:23;;;;;;;5.97;3.30;;;;;;;;;;5072013;28;20455;-57
2022/07/08 00:52:49;;;;;;;5.22;3.80;;;;;;;;;;5071749;28;20522;-56
2022/07/08 00:55:16;;;;;;;6.43;3.38;;;;;;;;;;5071763;28;20028;-58
2022/07/08 00:57:42;;;;;;;6.47;3.42;;;;;;;;;;5073852;28;20029;-57
2022/07/08 01:00:08;;;;;;;9.02;3.17;;;;;;;;;;5075849;28;20044;-57
2022/07/08 01:02:34;;;;;;;5.13;3.08;;;;;;;;;;5075372;28;20028;-57
2022/07/08 01:05:00;;;;;;;5.60;3.58;;;;;;;;;;5075582;28;20095;-57
2022/07/08 01:07:26;;;;;;;8.82;4.10;;;;;;;;;;5075324;28;20051;-57
2022/07/08 01:09:52;;;;;;;7.50;3.92;;;;;;;;;;5075451;28;20443;-57
2022/07/08 01:12:18;;;;;;;8.75;4.40;;;;;;;;;;5075674;28;20032;-57
2022/07/08 01:14:45;;;;;;;6.43;4.18;;;;;;;;;;5075339;28;20046;-57
2022/07/08 01:17:11;;;;;;;9.55;4.30;;;;;;;;;;5074950;28;20028;-57
2022/07/08 01:19:37;;;;;;;6.85;4.47;;;;;;;;;;5075489;28;20047;-57
2022/07/08 01:22:03;;;;;;;5.82;3.10;;;;;;;;;;5075184;28;20477;-56
2022/07/08 01:24:29;;;;;;;9.07;4.70;;;;;;;;;;5075171;28;20472;-57
2022/07/08 01:26:56;;;;;;;7.05;4.00;;;;;;;;;;5075074;28;20021;-57
2022/07/08 01:29:22;;;;;;;7.93;4.65;;;;;;;;;;5075318;28;20021;-57
2022/07/08 01:31:52;;;;;;;12.50;4.90;;;;;;;;;;5074627;28;20036;-58
2022/07/08 01:34:18;;;;;;;8.63;4.70;;;;;;;;;;5075014;28;20020;-58
2022/07/08 01:36:44;;;;;;;7.25;4.50;;;;;;;;;;5074475;28;20044;-54
2022/07/08 01:39:10;;;;;;;8.65;4.35;;;;;;;;;;5075324;28;20028;-58
2022/07/08 01:41:36;;;;;;;9.43;4.35;;;;;;;;;;5074762;28;20044;-56
2022/07/08 01:44:02;;;;;;;9.18;4.40;;;;;;;;;;5074737;28;20059;-58
2022/07/08 01:46:28;;;;;;;9.80;4.68;;;;;;;;;;5074446;28;20055;-57
2022/07/08 01:48:54;;;;;;;10.32;4.82;;;;;;;;;;5074765;28;20039;-58
2022/07/08 01:51:20;;;;;;;7.85;4.13;;;;;;;;;;5074752;28;20039;-58
2022/07/08 01:53:46;;;;;;;12.13;4.85;;;;;;;;;;5074582;28;20031;-58
2022/07/08 01:56:12;;;;;;;13.30;5.20;;;;;;;;;;5074680;28;20540;-58
2022/07/08 01:58:38;;;;;;;13.23;5.78;;;;;;;;;;5074550;28;20017;-57
2022/07/08 02:01:04;;;;;;;13.20;7.63;;;;;;;;;;5074208;28;20398;-57
2022/07/08 02:03:30;;;;;;;20.35;9.25;;;;;;;;;;5074311;28;20017;-57
2022/07/08 02:05:57;;;;;;;18.23;9.10;;;;;;;;;;5074411;28;20060;-58
2022/07/08 02:08:23;;;;;;;16.02;8.00;;;;;;;;;;5073507;28;20469;-58
2022/07/08 02:13:35;;;;;;;9.52;5.53;;;;;;;;;;5074574;28;20037;-57
2022/07/08 02:16:01;;;;;;;8.93;6.10;;;;;;;;;;5073963;28;20040;-58
2022/07/08 02:18:27;;;;;;;13.70;7.75;;;;;;;;;;5074150;28;20053;-58
2022/07/08 02:20:53;;;;;;;13.10;8.00;;;;;;;;;;5073973;28;20040;-57
2022/07/08 02:23:19;;;;;;;10.05;6.35;;;;;;;;;;5074127;28;20025;-56
2022/07/08 02:25:45;;;;;;;11.15;7.43;;;;;;;;;;5074306;28;20029;-58
2022/07/08 02:28:11;;;;;;;8.57;6.35;;;;;;;;;;5073979;28;20035;-57
2022/07/08 02:30:37;;;;;;;9.57;5.40;;;;;;;;;;5073604;28;20108;-56
2022/07/08 02:33:03;;;;;;;10.40;5.10;;;;;;;;;;5073794;28;20370;-58
2022/07/08 02:35:29;;;;;;;8.43;5.00;;;;;;;;;;5073681;28;20064;-58
2022/07/08 02:37:55;;;;;;;6.57;4.70;;;;;;;;;;5073609;28;20056;-56
2022/07/08 02:40:21;;;;;;;8.25;4.97;;;;;;;;;;5073614;28;20031;-58
2022/07/08 02:42:47;;;;;;;8.77;5.15;;;;;;;;;;5073962;28;20048;-58
2022/07/08 02:45:13;;;;;;;6.28;4.32;;;;;;;;;;5073236;28;20027;-57
2022/07/08 02:47:39;;;;;;;8.02;4.65;;;;;;;;;;5073539;28;20060;-58
2022/07/08 02:50:06;;;;;;;6.18;4.18;;;;;;;;;;5073455;28;20029;-58
2022/07/08 02:52:32;;;;;;;7.00;4.47;;;;;;;;;;5073904;28;20094;-56
2022/07/08 02:54:58;;;;;;;8.70;4.20;;;;;;;;;;5073377;28;20056;-58
2022/07/08 02:57:24;;;;;;;5.82;4.13;;;;;;;;;;5073390;28;20409;-58
2022/07/08 02:59:50;;;;;;;4.30;3.60;;;;;;;;;;5073010;28;20029;-58
2022/07/08 03:02:16;;;;;;;6.22;3.85;;;;;;;;;;5073671;28;20392;-58
2022/07/08 03:04:42;;;;;;;5.38;4.13;;;;;;;;;;5073377;28;20032;-58
2022/07/08 03:07:08;;;;;;;4.90;3.45;;;;;;;;;;5073219;28;20016;-56
2022/07/08 03:09:35;;;;;;;4.30;3.90;;;;;;;;;;5072859;28;20028;-58
2022/07/08 03:12:01;;;;;;;6.70;4.47;;;;;;;;;;5073038;28;20037;-57
2022/07/08 03:14:27;;;;;;;5.53;3.72;;;;;;;;;;5073091;28;20025;-58
2022/07/08 03:16:53;;;;;;;4.57;3.85;;;;;;;;;;5073142;28;20127;-58
2022/07/08 03:19:19;;;;;;;6.50;3.90;;;;;;;;;;5072591;28;20536;-59
2022/07/08 03:21:45;;;;;;;6.57;4.20;;;;;;;;;;5072721;28;20048;-56
2022/07/08 03:24:12;;;;;;;5.00;4.05;;;;;;;;;;5072781;28;20036;-58
2022/07/08 03:26:38;;;;;;;5.75;3.90;;;;;;;;;;5073106;28;20025;-57
2022/07/08 03:29:04;;;;;;;7.35;4.03;;;;;;;;;;5072501;28;20029;-58
2022/07/08 03:31:30;;;;;;;13.60;6.18;;;;;;;;;;5072679;28;20029;-58
2022/07/08 03:33:56;;;;;;;9.77;5.95;;;;;;;;;;5072661;28;20029;-58
2022/07/08 03:36:22;;;;;;;11.70;6.20;;;;;;;;;;5072446;28;20135;-57
2022/07/08 03:38:49;;;;;;;9.73;6.40;;;;;;;;;;5072995;28;20033;-56
2022/07/08 03:41:24;;;;;;;9.60;5.70;;;;;;;;;;5072703;28;20109;-58
2022/07/08 03:43:51;;;;;;;9.00;5.10;;;;;;;;;;5071953;28;20036;-58
2022/07/08 03:46:17;;;;;;;9.95;8.27;;;;;;;;;;5072763;28;20024;-57
2022/07/08 03:48:43;;;;;;;8.05;5.53;;;;;;;;;;5072495;28;20032;-57
2022/07/08 03:51:10;;;;;;;20.40;9.68;;;;;;;;;;5072270;28;20124;-58
2022/07/08 03:53:36;;;;;;;11.40;9.18;;;;;;;;;;5072211;28;20141;-58
2022/07/08 03:56:03;;;;;;;11.32;8.70;;;;;;;;;;5072436;28;20078;-58
2022/07/08 03:58:29;;;;;;;11.13;8.23;;;;;;;;;;5072137;28;20029;-58
2022/07/08 04:00:55;;;;;;;10.30;7.85;;;;;;;;;;5072651;28;20031;-59
2022/07/08 04:03:21;;;;;;;11.43;7.90;;;;;;;;;;5072324;28;20043;-58
2022/07/08 04:05:47;;;;;;;7.95;6.35;;;;;;;;;;5072291;28;20028;-58
2022/07/08 04:08:13;;;;;;;7.70;5.50;;;;;;;;;;5072025;28;20028;-56
2022/07/08 04:10:39;;;;;;;6.07;5.07;;;;;;;;;;5072518;28;20123;-58
2022/07/08 04:13:05;;;;;;;7.97;5.45;;;;;;;;;;5071962;28;20028;-56
2022/07/08 04:15:31;;;;;;;6.90;6.05;;;;;;;;;;5072108;28;20066;-58
2022/07/08 04:17:57;;;;;;;9.55;7.18;;;;;;;;;;5072166;28;20020;-58
2022/07/08 04:20:23;;;;;;;10.10;7.28;;;;;;;;;;5072270;28;20047;-58
2022/07/08 04:22:49;;;;;;;8.48;6.70;;;;;;;;;;5071919;28;20035;-58
2022/07/08 04:25:15;;;;;;;8.27;6.68;;;;;;;;;;5071861;28;20070;-60
2022/07/08 04:27:41;;;;;;;7.82;6.88;;;;;;;;;;5072001;28;20073;-58
2022/07/08 04:30:07;;;;;;;7.05;5.05;;;;;;;;;;5071880;28;20421;-58
2022/07/08 04:32:33;;;;;;;5.72;4.15;;;;;;;;;;5074052;28;20108;-58
2022/07/08 04:34:59;;;;;;;6.28;4.55;;;;;;;;;;5075944;28;20089;-58
2022/07/08 04:37:26;;;;;;;6.63;4.45;;;;;;;;;;5075839;28;20557;-56
2022/07/08 04:39:53;;;;;;;7.40;5.15;;;;;;;;;;5075863;28;20052;-58
2022/07/08 04:42:19;;;;;;;5.30;4.80;;;;;;;;;;5076156;28;20024;-57
2022/07/08 04:44:45;;;;;;;7.60;4.60;;;;;;;;;;5075865;28;20035;-58
2022/07/08 04:47:11;;;;;;;6.28;5.10;;;;;;;;;;5075898;28;20034;-58
2022/07/08 04:49:37;;;;;;;5.60;4.68;;;;;;;;;;5076099;28;20028;-58
2022/07/08 04:52:06;;;;;;;9.27;5.63;;;;;;;;;;5075593;28;20029;-56
2022/07/08 04:54:33;;;;;;;5.90;5.20;;;;;;;;;;5075435;28;20111;-58
2022/07/08 04:56:59;;;;;;;9.13;6.00;;;;;;;;;;5075662;28;20107;-58
2022/07/08 04:59:25;;;;;;;10.25;5.97;;;;;;;;;;5075708;28;20487;-58
2022/07/08 05:01:51;;;;;;;9.23;6.07;;;;;;;;;;5075632;28;20042;-58
2022/07/08 05:04:17;;;;;;;7.65;5.63;;;;;;;;;;5075638;28;20033;-58
2022/07/08 05:06:43;;;;;;;7.00;4.43;;;;;;;;;;5075412;28;20059;-57
2022/07/08 05:09:09;;;;;;;10.38;6.20;;;;;;;;;;5075181;28;20477;-58
2022/07/08 05:11:35;;;;;;;7.20;5.10;;;;;;;;;;5075519;28;20032;-58
2022/07/08 05:14:01;;;;;;;5.88;4.95;;;;;;;;;;5075505;28;20108;-58
2022/07/08 05:16:27;;;;;;;6.15;4.80;;;;;;;;;;5075457;28;20020;-56
2022/07/08 05:18:54;;;;;;;5.47;4.63;;;;;;;;;;5075484;28;20113;-58
2022/07/08 05:21:20;;;;;;;6.93;4.68;;;;;;;;;;5075343;28;20039;-57
2022/07/08 05:23:46;;;;;;;7.07;4.65;;;;;;;;;;5074834;28;20036;-57
2022/07/08 05:26:12;;;;;;;9.52;4.63;;;;;;;;;;5075215;28;20098;-58
2022/07/08 05:28:38;;;;;;;5.88;4.40;;;;;;;;;;5075067;28;20021;-57
2022/07/08 05:31:04;;;;;;;9.15;5.05;;;;;;;;;;5075246;28;20071;-58
2022/07/08 05:33:30;;;;;;;7.65;4.72;;;;;;;;;;5074949;28;20016;-58
2022/07/08 05:35:56;;;;;;;9.38;4.72;;;;;;;;;;5074751;28;20131;-58
2022/07/08 05:38:22;;;;;;;8.95;4.40;;;;;;;;;;5074713;28;20028;-57
2022/07/08 05:40:48;;;;;;;6.57;4.65;;;;;;;;;;5074871;28;20032;-58
2022/07/08 05:43:14;;;;;;;6.25;4.53;;;;;;;;;;5074805;28;20031;-58
2022/07/08 05:45:40;;;;;;;8.27;5.03;;;;;;;;;;5074719;28;20419;-58
2022/07/08 05:48:06;;;;;;;6.93;4.82;;;;;;;;;;5074742;28;20362;-58
2022/07/08 05:50:32;;;;;;;7.43;4.85;;;;;;;;;;5074591;28;20048;-57
2022/07/08 05:52:58;;;;;;;7.10;4.30;;;;;;;;;;5073406;28;20099;-55
2022/07/08 05:55:25;;;;;;;5.03;4.53;;;;;;;;;;5074603;28;20028;-58
2022/07/08 05:57:51;;;;;;;5.25;4.43;;;;;;;;;;5074634;28;20016;-58
2022/07/08 06:00:17;;;;;;;6.18;4.85;;;;;;;;;;5074515;28;20032;-58
2022/07/08 06:02:44;;;;;;;7.57;4.30;;;;;;;;;;5074599;28;20396;-56
2022/07/08 06:05:10;;;;;;;4.75;4.32;;;;;;;;;;5074315;28;20083;-57
2022/07/08 06:07:37;;;;;;;4.90;4.40;;;;;;;;;;5074008;28;20036;-57
2022/07/08 06:10:03;;;;;;;5.40;4.55;;;;;;;;;;5074628;28;20016;-58
2022/07/08 06:12:29;;;;;;;7.20;5.25;;;;;;;;;;5074311;28;20028;-55
2022/07/08 06:14:55;;;;;;;6.65;4.93;;;;;;;;;;5074215;28;20427;-58
2022/07/08 06:17:21;;;;;;;5.82;5.20;;;;;;;;;;5074539;28;20480;-57
2022/07/08 06:19:47;;;;;;;6.55;4.90;;;;;;;;;;5073875;28;20101;-58
2022/07/08 06:22:14;;;;;;;5.97;5.40;;;;;;;;;;5073644;28;20400;-57
2022/07/08 06:24:40;;;;;;;6.30;5.70;;;;;;;;;;5074329;28;20027;-58
2022/07/08 06:27:06;;;;;;;7.68;5.68;;;;;;;;;;5073997;28;20033;-57
2022/07/08 06:29:32;;;;;;;7.40;6.47;;;;;;;;;;5073685;28;20496;-58
2022/07/08 06:31:58;;;;;;;7.93;7.15;;;;;;;;;;5073725;28;20041;-58
2022/07/08 06:34:24;;;;;;;8.30;7.70;;;;;;;;;;5073667;28;20358;-58
2022/07/08 06:36:50;;;;;;;7.90;7.40;;;;;;;;;;5073000;28;20496;-56
2022/07/08 06:39:16;;;;;;;8.25;7.65;;;;;;;;;;5073666;28;20024;-57
2022/07/08 06:41:42;;;;;;;7.00;6.35;;;;;;;;;;5073919;28;20063;-56
2022/07/08 06:44:08;;;;;;;8.20;7.45;;;;;;;;;;5073612;28;20032;-57
2022/07/08 06:46:34;;;;;;;7.40;6.80;;;;;;;;;;5072230;28;20679;-57
2022/07/08 06:49:00;;;;;;;7.60;6.90;;;;;;;;;;5073831;28;20039;-57
2022/07/08 06:51:27;;;;;;;6.13;5.57;;;;;;;;;;5073019;28;20040;-58
2022/07/08 06:56:37;;;;;;;8.57;6.57;;;;;;;;;;5073102;28;20085;-56
2022/07/08 06:59:06;;;;;;;8.50;7.75;;;;;;;;;;5073267;28;20021;-57
2022/07/08 07:01:32;;;;;;;10.25;9.45;;;;;;;;;;5073131;28;20111;-57
2022/07/08 07:03:58;;;;;;;43.13;40.78;;;;;;;;;;5073264;28;20032;-58
2022/07/08 07:06:24;;;;;;;14.05;13.25;;;;;;;;;;5073206;28;20020;-57
2022/07/08 07:08:50;;;;;;;14.40;13.38;;;;;;;;;;5073007;28;20047;-55
2022/07/08 07:11:16;;;;;;;15.57;14.50;;;;;;;;;;5072985;28;20064;-59
2022/07/08 07:13:42;;;;;;;19.73;18.75;;;;;;;;;;5073102;28;20067;-55
2022/07/08 07:16:08;;;;;;;18.15;17.10;;;;;;;;;;5072852;28;20073;-57
2022/07/08 07:18:34;;;;;;;17.65;16.20;;;;;;;;;;5073341;28;20035;-57
2022/07/08 07:21:00;;;;;;;13.85;13.15;;;;;;;;;;5072493;28;20029;-57
2022/07/08 07:23:26;;;;;;;13.00;12.30;;;;;;;;;;5072780;28;20028;-58
2022/07/08 07:25:52;;;;;;;22.55;21.25;;;;;;;;;;5072744;28;20393;-56
2022/07/08 07:28:18;;;;;;;10.70;10.00;;;;;;;;;;5072981;28;20440;-57
2022/07/08 07:30:44;;;;;;;12.35;11.55;;;;;;;;;;5071135;28;20037;-57
2022/07/08 07:33:10;;;;;;;10.10;9.50;;;;;;;;;;5072649;28;20362;-58
2022/07/08 07:35:37;;;;;;;12.00;11.35;;;;;;;;;;5072255;28;20068;-58
2022/07/08 07:38:03;;;;;;;10.70;9.88;;;;;;;;;;5072400;28;20033;-55
2022/07/08 07:40:29;;;;;;;16.38;15.35;;;;;;;;;;5072432;28;20020;-55
2022/07/08 07:42:55;;;;;;;17.02;16.02;;;;;;;;;;5072866;28;20079;-57
2022/07/08 07:45:21;;;;;;;9.02;8.52;;;;;;;;;;5072266;28;20017;-57
2022/07/08 07:47:47;;;;;;;11.45;10.77;;;;;;;;;;5072413;28;20396;-57
2022/07/08 07:50:13;;;;;;;8.55;7.78;;;;;;;;;;5072285;28;20067;-57
2022/07/08 07:52:39;;;;;;;8.32;7.63;;;;;;;;;;5072395;28;20464;-55
2022/07/08 07:55:09;;;;;;;12.15;11.55;;;;;;;;;;5072279;28;20050;-57
2022/07/08 07:57:35;;;;;;;5.80;5.30;;;;;;;;;;5072209;28;20483;-57
2022/07/08 08:00:01;;;;;;;6.72;6.32;;;;;;;;;;5072160;28;20127;-57
2022/07/08 08:02:27;;;;;;;7.55;7.00;;;;;;;;;;5072602;28;20538;-57
2022/07/08 08:04:53;;;;;;;6.05;4.82;;;;;;;;;;5071838;28;20029;-57
2022/07/08 08:07:19;;;;;;;8.90;8.30;;;;;;;;;;5072400;28;20052;-55
2022/07/08 08:09:45;;;;;;;9.10;7.22;;;;;;;;;;5072217;28;20028;-58
2022/07/08 08:12:11;;;;;;;9.85;9.25;;;;;;;;;;5072113;28;20036;-57
2022/07/08 08:14:37;;;;;;;5.13;4.30;;;;;;;;;;5072509;28;20025;-57
2022/07/08 08:17:04;;;;;;;3.78;3.47;;;;;;;;;;5072130;28;20033;-57
2022/07/08 08:19:31;;;;;;;4.60;3.42;;;;;;;;;;5071694;28;20020;-57
2022/07/08 08:21:57;;;;;;;3.70;2.90;;;;;;;;;;5072012;28;20086;-58
2022/07/08 08:24:24;;;;;;;4.70;3.00;;;;;;;;;;5072479;28;20523;-57
2022/07/08 08:26:50;;;;;;;3.17;2.33;;;;;;;;;;5071670;28;20050;-57
2022/07/08 08:29:16;;;;;;;3.28;2.30;;;;;;;;;;5071868;28;20024;-57
2022/07/08 08:31:42;;;;;;;3.72;2.50;;;;;;;;;;5071832;28;20044;-58
2022/07/08 08:34:08;;;;;;;4.05;2.65;;;;;;;;;;5071616;28;20016;-57
2022/07/08 08:36:35;;;;;;;3.30;2.10;;;;;;;;;;5071990;28;20135;-56
2022/07/08 08:39:01;;;;;;;2.63;1.90;;;;;;;;;;5071922;28;20083;-56
2022/07/08 08:41:27;;;;;;;3.65;1.90;;;;;;;;;;5071850;28;20027;-57
2022/07/08 08:43:53;;;;;;;3.88;1.80;;;;;;;;;;5072139;28;20477;-56
2022/07/08 08:46:22;;;;;;;2.40;1.42;;;;;;;;;;5071512;28;20029;-57
2022/07/08 08:48:49;;;;;;;2.03;1.52;;;;;;;;;;5071893;28;20025;-57
2022/07/08 08:51:18;;;;;;;2.67;1.40;;;;;;;;;;5071846;28;20029;-57
2022/07/08 08:53:45;;;;;;;2.45;1.63;;;;;;;;;;5071785;28;20033;-55
2022/07/08 08:56:15;;;;;;;2.88;1.60;;;;;;;;;;5071654;28;20481;-57
2022/07/08 08:58:46;;;;;;;3.38;1.70;;;;;;;;;;5072014;28;20381;-57
2022/07/08 09:01:13;;;;;;;1.83;1.58;;;;;;;;;;5071260;28;20037;-57
2022/07/08 09:03:39;;;;;;;3.13;1.48;;;;;;;;;;5072086;28;20048;-58
2022/07/08 09:06:06;;;;;;;4.93;1.92;;;;;;;;;;5071768;28;20028;-57
2022/07/08 09:08:32;;;;;;;3.83;1.60;;;;;;;;;;5071553;28;20089;-57
2022/07/08 09:10:58;;;;;;;4.10;1.70;;;;;;;;;;5071282;28;20047;-56
2022/07/08 09:13:25;;;;;;;4.28;1.58;;;;;;;;;;5071451;28;20469;-57
2022/07/08 09:15:54;;;;;;;3.75;1.80;;;;;;;;;;5069837;28;20362;-56
2022/07/08 09:18:22;;;;;;;2.78;1.50;;;;;;;;;;5073465;28;20039;-52
2022/07/08 09:20:49;;;;;;;4.32;1.55;;;;;;;;;;5075047;28;20067;-55
2022/07/08 09:23:15;;;;;;;4.43;1.70;;;;;;;;;;5075203;28;20029;-55
2022/07/08 09:25:42;;;;;;;4.55;1.60;;;;;;;;;;5074904;28;20024;-57
2022/07/08 09:28:08;;;;;;;5.00;1.70;;;;;;;;;;5075048;28;20052;-53
2022/07/08 09:30:34;;;;;;;1.80;1.45;;;;;;;;;;5074970;28;20024;-56
2022/07/08 09:33:01;;;;;;;3.38;1.48;;;;;;;;;;5074982;28;20032;-57
2022/07/08 09:35:31;;;;;;;2.95;1.50;;;;;;;;;;5075101;28;20119;-54
2022/07/08 09:38:00;;;;;;;2.22;1.25;;;;;;;;;;5074667;28;20043;-53
2022/07/08 09:40:26;;;;;;;2.72;1.40;;;;;;;;;;5074833;28;20032;-55
2022/07/08 09:42:52;;;;;;;4.13;1.50;;;;;;;;;;5075254;28;20488;-56
2022/07/08 09:45:18;;;;;;;2.78;1.52;;;;;;;;;;5074567;28;20029;-57
2022/07/08 09:47:45;;;;;;;3.00;1.48;;;;;;;;;;5074721;28;20024;-57
2022/07/08 09:50:11;;;;;;;4.45;1.52;;;;;;;;;;5074675;28;20100;-57
2022/07/08 09:52:37;;;;;;;1.58;1.48;;;;;;;;;;5074086;28;20024;-57
2022/07/08 09:55:04;;;;;;;4.05;1.40;;;;;;;;;;5074187;28;20401;-57
2022/07/08 09:57:31;;;;;;;3.85;1.15;;;;;;;;;;5074439;28;20522;-55
2022/07/08 09:59:57;;;;;;;2.85;1.48;;;;;;;;;;5074445;28;20157;-56
2022/07/08 10:02:24;;;;;;;3.28;1.35;;;;;;;;;;5074586;28;20033;-56
2022/07/08 10:04:51;;;;;;;2.42;1.17;;;;;;;;;;5074664;28;20025;-57
2022/07/08 10:07:17;;;;;;;2.78;1.20;;;;;;;;;;5074263;28;20465;-57
2022/07/08 10:09:43;;;;;;;3.05;1.38;;;;;;;;;;5074277;28;20039;-57
2022/07/08 10:12:14;;;;;;;3.95;1.67;;;;;;;;;;5074586;28;20083;-57
2022/07/08 10:14:41;;;;;;;2.92;1.10;;;;;;;;;;5074346;28;20104;-57
2022/07/08 10:17:10;;;;;;;2.72;1.40;;;;;;;;;;5074367;28;20036;-57
2022/07/08 10:19:38;;;;;;;2.63;1.02;;;;;;;;;;5074192;28;20481;-57
2022/07/08 10:22:05;;;;;;;2.78;1.23;;;;;;;;;;5074175;28;20021;-53
2022/07/08 10:24:32;;;;;;;2.20;1.40;;;;;;;;;;5074148;28;20029;-57
2022/07/08 10:27:02;;;;;;;2.97;1.40;;;;;;;;;;5074378;28;20062;-57
2022/07/08 10:29:28;;;;;;;3.10;1.42;;;;;;;;;;5072511;28;20020;-57
2022/07/08 10:31:55;;;;;;;2.35;1.30;;;;;;;;;;5073990;28;20040;-57
2022/07/08 10:34:22;;;;;;;2.72;1.20;;;;;;;;;;5073776;28;20489;-57
2022/07/08 10:36:51;;;;;;;3.78;1.30;;;;;;;;;;5073573;28;20056;-55
2022/07/08 10:39:27;;;;;;;2.72;1.20;;;;;;;;;;5074070;28;20028;-57
2022/07/08 10:42:03;;;;;;;4.38;1.42;;;;;;;;;;5073808;28;20020;-53
2022/07/08 10:44:45;;;;;;;5.53;1.30;;;;;;;;;;5073389;28;20047;-56
2022/07/08 10:47:17;;;;;;;4.03;1.20;;;;;;;;;;5073640;28;20032;-57
2022/07/08 10:49:47;;;;;;;3.07;1.40;;;;;;;;;;5073646;28;20497;-57
2022/07/08 10:52:13;;;;;;;3.80;1.33;;;;;;;;;;5073856;28;20032;-52
2022/07/08 10:54:39;;;;;;;3.50;1.50;;;;;;;;;;5073364;28;20020;-57
2022/07/08 10:57:08;;;;;;;2.50;1.50;;;;;;;;;;5073155;28;20048;-57
2022/07/08 10:59:38;;;;;;;4.55;3.03;;;;;;;;;;5073571;28;20046;-57
2022/07/08 11:02:08;;;;;;;3.65;2.08;;;;;;;;;;5073416;28;20582;-57
2022/07/08 11:04:34;;;;;;;2.30;1.63;;;;;;;;;;5073365;28;20020;-57
2022/07/08 11:07:22;;;;;;;2.47;1.30;;;;;;;;;;5073331;28;20027;-55
2022/07/08 11:09:52;;;;;;;3.90;1.20;;;;;;;;;;5073054;28;20028;-56
2022/07/08 11:12:22;;;;;;;3.42;1.30;;;;;;;;;;5072778;28;20039;-57
2022/07/08 11:14:49;;;;;;;1.63;1.30;;;;;;;;;;5073050;28;20021;-57
2022/07/08 11:17:15;;;;;;;5.22;1.42;;;;;;;;;;5073063;28;20025;-57
2022/07/08 11:19:42;;;;;;;4.15;1.60;;;;;;;;;;5073269;28;20036;-57
2022/07/08 11:22:09;;;;;;;6.63;1.70;;;;;;;;;;5072866;28;20017;-57
2022/07/08 11:24:39;;;;;;;6.05;1.20;;;;;;;;;;5072935;28;20029;-57
2022/07/08 11:27:06;;;;;;;3.20;1.30;;;;;;;;;;5072807;28;20029;-57
2022/07/08 11:29:32;;;;;;;2.08;1.50;;;;;;;;;;5071648;28;20481;-57
2022/07/08 11:31:59;;;;;;;2.40;1.10;;;;;;;;;;5072662;28;20511;-57
2022/07/08 11:34:25;;;;;;;1.77;1.30;;;;;;;;;;5072764;28;20100;-57
2022/07/08 11:36:56;;;;;;;1.95;1.20;;;;;;;;;;5072619;28;20055;-55
2022/07/08 11:39:22;;;;;;;3.17;1.38;;;;;;;;;;5072605;28;20025;-57
2022/07/08 11:41:48;;;;;;;3.13;1.10;;;;;;;;;;5072023;28;20040;-56
2022/07/08 11:44:21;;;;;;;3.72;1.10;;;;;;;;;;5072703;28;20093;-56
2022/07/08 11:46:48;;;;;;;1.20;1.08;;;;;;;;;;5072551;28;20163;-57
2022/07/08 11:49:14;;;;;;;3.38;1.30;;;;;;;;;;5072915;28;20016;-58
2022/07/08 11:51:46;;;;;;;1.85;1.15;;;;;;;;;;5072058;28;20066;-59
2022/07/08 11:54:13;;;;;;;1.95;1.20;;;;;;;;;;5072856;28;20048;-58
2022/07/08 11:56:39;;;;;;;3.13;1.30;;;;;;;;;;5072072;28;20033;-58
2022/07/08 11:59:05;;;;;;;4.90;1.30;;;;;;;;;;5072300;28;20048;-58
2022/07/08 12:01:33;;;;;;;2.33;1.20;;;;;;;;;;5072406;28;20107;-58
2022/07/08 12:03:59;;;;;;;2.45;1.30;;;;;;;;;;5072512;28;20381;-58
2022/07/08 12:06:26;;;;;;;3.28;1.35;;;;;;;;;;5072282;28;20032;-58
2022/07/08 12:08:52;;;;;;;2.90;1.15;;;;;;;;;;5072194;28;20029;-57
2022/07/08 12:11:20;;;;;;;3.25;1.10;;;;;;;;;;5071556;28;20028;-57
2022/07/08 12:13:50;;;;;;;4.38;1.15;;;;;;;;;;5072228;28;20033;-57
2022/07/08 12:16:29;;;;;;;2.90;1.20;;;;;;;;;;5071839;28;20504;-54
2022/07/08 12:18:55;;;;;;;3.15;1.30;;;;;;;;;;5071851;28;20420;-57
2022/07/08 12:21:21;;;;;;;2.15;1.17;;;;;;;;;;5071278;28;20443;-55
2022/07/08 12:23:58;;;;;;;1.90;1.10;;;;;;;;;;5071697;28;20024;-53
2022/07/08 12:26:24;;;;;;;3.22;1.17;;;;;;;;;;5072316;28;20020;-56
2022/07/08 12:28:50;;;;;;;2.30;1.20;;;;;;;;;;5071842;28;20485;-56
2022/07/08 12:31:31;;;;;;;1.55;1.15;;;;;;;;;;5071816;28;20123;-54
2022/07/08 12:34:04;;;;;;;1.92;1.20;;;;;;;;;;5071754;28;20025;-53
2022/07/08 12:36:31;;;;;;;1.98;1.10;;;;;;;;;;5071667;28;20041;-50
2022/07/08 12:38:57;;;;;;;4.53;1.60;;;;;;;;;;5071003;28;20033;-56
2022/07/08 12:41:23;;;;;;;3.35;1.00;;;;;;;;;;5071861;28;20154;-53
2022/07/08 12:43:49;;;;;;;3.58;1.33;;;;;;;;;;5071871;28;20031;-54
2022/07/08 12:46:15;;;;;;;1.23;1.10;;;;;;;;;;5071767;28;20025;-56
2022/07/08 12:48:41;;;;;;;2.30;1.40;;;;;;;;;;5071671;28;20662;-57
2022/07/08 12:51:08;;;;;;;2.42;1.10;;;;;;;;;;5071270;28;20036;-57
2022/07/08 12:53:34;;;;;;;3.05;1.40;;;;;;;;;;5073258;28;20038;-56
2022/07/08 12:56:00;;;;;;;4.13;1.05;;;;;;;;;;5075449;28;20481;-55
2022/07/08 12:58:26;;;;;;;3.85;1.30;;;;;;;;;;5075404;28;20460;-57
2022/07/08 13:00:52;;;;;;;1.65;1.10;;;;;;;;;;5075391;28;20474;-53
2022/07/08 13:03:18;;;;;;;2.10;1.00;;;;;;;;;;5073957;28;20021;-57
2022/07/08 13:05:44;;;;;;;1.92;1.00;;;;;;;;;;5074941;28;20020;-57
2022/07/08 13:08:10;;;;;;;2.80;1.20;;;;;;;;;;5074932;28;20025;-56
2022/07/08 13:10:37;;;;;;;2.45;1.00;;;;;;;;;;5075352;28;20047;-56
2022/07/08 13:13:06;;;;;;;5.97;1.10;;;;;;;;;;5072735;28;20024;-55
2022/07/08 13:15:34;;;;;;;1.30;0.93;;;;;;;;;;5073525;28;20393;-56
2022/07/08 13:18:00;;;;;;;2.45;1.00;;;;;;;;;;5074859;28;20021;-54
2022/07/08 13:20:26;;;;;;;2.67;1.02;;;;;;;;;;5075089;28;20059;-57
2022/07/08 13:22:52;;;;;;;3.42;1.00;;;;;;;;;;5074456;28;20020;-58
2022/07/08 13:25:18;;;;;;;2.28;1.00;;;;;;;;;;5074903;28;20029;-57
2022/07/08 13:27:45;;;;;;;0.95;0.90;;;;;;;;;;5075128;28;20090;-57
2022/07/08 13:30:11;;;;;;;2.50;1.00;;;;;;;;;;5074399;28;20024;-57
2022/07/08 13:32:38;;;;;;;1.00;0.90;;;;;;;;;;5057772;28;20595;-55
2022/07/08 13:35:04;;;;;;;2.88;1.20;;;;;;;;;;5054270;28;20032;-55
2022/07/08 13:37:31;;;;;;;2.00;1.00;;;;;;;;;;5062058;28;20028;-55
2022/07/08 13:39:57;;;;;;;4.78;1.27;;;;;;;;;;5067851;28;20066;-54
2022/07/08 13:42:23;;;;;;;3.20;1.20;;;;;;;;;;5063213;28;20017;-55
2022/07/08 13:44:49;;;;;;;2.58;1.00;;;;;;;;;;5063825;28;20031;-56
2022/07/08 13:47:16;;;;;;;2.75;1.00;;;;;;;;;;5062366;28;20112;-56
2022/07/08 13:49:42;;;;;;;2.30;1.15;;;;;;;;;;5056479;28;20032;-57
2022/07/08 13:52:08;;;;;;;1.73;1.00;;;;;;;;;;5053867;28;20029;-56
2022/07/08 13:54:34;;;;;;;1.65;1.20;;;;;;;;;;5054834;28;20025;-56
2022/07/08 13:57:00;;;;;;;2.08;1.00;;;;;;;;;;5054133;28;20028;-56
2022/07/08 13:59:26;;;;;;;2.00;1.15;;;;;;;;;;5053690;28;20100;-57
2022/07/08 14:01:52;;;;;;;1.15;0.98;;;;;;;;;;5052246;28;20449;-57
2022/07/08 14:04:18;;;;;;;1.52;1.00;;;;;;;;;;5053414;28;20056;-57
2022/07/08 14:06:44;;;;;;;1.83;1.10;;;;;;;;;;5053613;28;20040;-56
2022/07/08 14:09:10;;;;;;;1.02;1.00;;;;;;;;;;5071418;28;20033;-55
2022/07/08 14:11:36;;;;;;;1.40;1.05;;;;;;;;;;5073362;28;20036;-55
2022/07/08 14:14:02;;;;;;;1.45;1.02;;;;;;;;;;5074309;28;20040;-57
2022/07/08 14:16:28;;;;;;;2.80;1.13;;;;;;;;;;5073358;28;20469;-54
2022/07/08 14:18:54;;;;;;;2.78;1.10;;;;;;;;;;5071870;28;20374;-56
2022/07/08 14:21:20;;;;;;;3.35;1.02;;;;;;;;;;5073658;28;20049;-57
2022/07/08 14:23:46;;;;;;;1.80;1.10;;;;;;;;;;5072995;28;20029;-55
2022/07/08 14:26:13;;;;;;;5.72;1.13;;;;;;;;;;5073636;28;20081;-56
2022/07/08 14:28:39;;;;;;;2.10;1.17;;;;;;;;;;5073595;28;20028;-56
2022/07/08 14:31:07;;;;;;;2.05;0.90;;;;;;;;;;5073663;28;20032;-56
2022/07/08 14:33:34;;;;;;;1.83;1.10;;;;;;;;;;5073354;28;20113;-57
2022/07/08 14:36:02;;;;;;;4.10;1.00;;;;;;;;;;5071753;28;20048;-56
2022/07/08 14:38:28;;;;;;;2.60;0.98;;;;;;;;;;5072720;28;20090;-56
2022/07/08 14:40:54;;;;;;;2.50;0.90;;;;;;;;;;5073447;28;20020;-56
2022/07/08 14:43:20;;;;;;;1.85;0.93;;;;;;;;;;5073098;28;20101;-56